Moab, Utah
Current Conditions -  °F | °C
As of 11:53 AM on Thursday 23 Oct 2014 (Local Time) from KCNY Reporting Station
Clear Clear  
Wind Chill: 65°   Ceiling: Unl
Heat Index: 65°   Visibility: 10mi
Dew Point: 35°   Wind: 5mph
Humidity: 33%   Direction: NA
Pressure: 30.22"   Gusts: NA
Location:  38.57°N, 109.55°W
Report Text: KCNY 231753Z AUTO VRB04KT 10SM CLR 18/02 A3022 RMK AO2 SLP204 T01830017 10183 20078 50002
Loading
Personal Weather Stations






























Interactive Weather Map
Tropical Storm Tracking
New forecast layout! Learn more

10-Day Weather Forecast

Advertisements
Track Severe Weather on mobile